Eizan Maru No.18 — JD3750 — position and weather

sailwx.info

Track history (hours):
 
Tides and Currents Weather Stations Pressure Air Temp Water Temp Dewpoint Dewpoint Depression Visibility Wind Speed Wind Dir Waves Ship Positions

Eizan Maru No.18

Last reported at 2018-Jun-01 16:16 UTC. Time now 2018-Jun-22 05:30 UTC.
Position N 34°59' E 139°31'.
Warning: this ship's position is 20 days out of date.

Length 104 m; draft 6.4 m.

Type: Tanker. MMSI: 431005734.

Date/timePositionNaut miles runAvg speedWind from/ knotsBaromVisibWave heightAir tempDewpointWater temp
2018-Jun-01 16:16N 34°59' E 139°31'413.6
2018-Jun-01 16:00N 35°01' E 139°35'713.7
2018-Jun-01 15:29N 35°06' E 139°41'713.5
2018-Jun-01 15:00N 35°11' E 139°45'611.9
2018-Jun-01 14:30N 35°17' E 139°45'612.4
2018-Jun-01 14:00N 35°23' E 139°42'713.4
2018-Jun-01 13:30N 35°28' E 139°48'713.2
2018-Jun-01 13:01N 35°31' E 139°55'5 0.8
2018-Jun-01 07:31N 35°30' E 140°01'1 7.8
2018-Jun-01 07:24N 35°31' E 139°60'1 0.2
2018-Jun-01 02:10N 35°32' E 139°59'0 1.5
2018-Jun-01 01:59N 35°31' E 139°58'511.2
2018-Jun-01 01:30N 35°29' E 139°53'612.3
2018-Jun-01 00:59N 35°25' E 139°47'611.7
2018-Jun-01 00:30N 35°19' E 139°44'510.7
2018-Jun-01 00:00N 35°15' E 139°47'611.9
2018-May-31 23:30N 35°09' E 139°46'612.8
2018-May-31 23:00N 35°03' E 139°43'712.6
2018-May-31 22:29N 34°59' E 139°37'  
Track history (hours):
 
Tides and Currents Weather Stations Pressure Air Temp Water Temp Dewpoint Dewpoint Depression Visibility Wind Speed Wind Dir Waves Ship Positions

Eizan Maru No.18

Last reported at 2018-Jun-01 16:16 UTC. Time now 2018-Jun-22 05:30 UTC.
Position N 34°59' E 139°31'.
Warning: this ship's position is 20 days out of date.

Length 104 m; draft 6.4 m.

Type: Tanker. MMSI: 431005734.

Date/timePositionNaut miles runAvg speedWind from/ knotsBaromVisibWave heightAir tempDewpointWater temp
2018-Jun-01 16:16N 34°59' E 139°31'413.6
2018-Jun-01 16:00N 35°01' E 139°35'713.7
2018-Jun-01 15:29N 35°06' E 139°41'713.5
2018-Jun-01 15:00N 35°11' E 139°45'611.9
2018-Jun-01 14:30N 35°17' E 139°45'612.4
2018-Jun-01 14:00N 35°23' E 139°42'713.4
2018-Jun-01 13:30N 35°28' E 139°48'713.2
2018-Jun-01 13:01N 35°31' E 139°55'5 0.8
2018-Jun-01 07:31N 35°30' E 140°01'1 7.8
2018-Jun-01 07:24N 35°31' E 139°60'1 0.2
2018-Jun-01 02:10N 35°32' E 139°59'0 1.5
2018-Jun-01 01:59N 35°31' E 139°58'511.2
2018-Jun-01 01:30N 35°29' E 139°53'612.3
2018-Jun-01 00:59N 35°25' E 139°47'611.7
2018-Jun-01 00:30N 35°19' E 139°44'510.7
2018-Jun-01 00:00N 35°15' E 139°47'611.9
2018-May-31 23:30N 35°09' E 139°46'612.8
2018-May-31 23:00N 35°03' E 139°43'712.6
2018-May-31 22:29N 34°59' E 139°37'  

Dump ship's entire track history